sensor_id;sensor_type;location;lat;lon;timestamp;P1;durP1;ratioP1;P2;durP2;ratioP2
52724;SDS011;38621;52.830;6.914;2023-11-18T00:01:23;81.70;;;12.18;;
52724;SDS011;38621;52.830;6.914;2023-11-18T00:03:50;42.85;;;9.82;;
52724;SDS011;38621;52.830;6.914;2023-11-18T00:06:15;34.08;;;9.25;;
52724;SDS011;38621;52.830;6.914;2023-11-18T00:08:41;13.77;;;7.97;;
52724;SDS011;38621;52.830;6.914;2023-11-18T00:11:08;10.02;;;7.32;;
52724;SDS011;38621;52.830;6.914;2023-11-18T00:13:36;17.83;;;8.27;;
52724;SDS011;38621;52.830;6.914;2023-11-18T00:16:04;9.63;;;7.85;;
52724;SDS011;38621;52.830;6.914;2023-11-18T00:18:31;9.32;;;7.57;;
52724;SDS011;38621;52.830;6.914;2023-11-18T00:20:57;9.20;;;7.60;;
52724;SDS011;38621;52.830;6.914;2023-11-18T00:23:23;9.80;;;7.30;;
52724;SDS011;38621;52.830;6.914;2023-11-18T00:25:52;30.20;;;8.20;;
52724;SDS011;38621;52.830;6.914;2023-11-18T00:28:18;18.83;;;7.90;;
52724;SDS011;38621;52.830;6.914;2023-11-18T00:30:45;36.47;;;8.18;;
52724;SDS011;38621;52.830;6.914;2023-11-18T00:33:10;11.50;;;7.68;;
52724;SDS011;38621;52.830;6.914;2023-11-18T00:35:36;12.10;;;9.00;;
52724;SDS011;38621;52.830;6.914;2023-11-18T00:38:02;14.57;;;9.60;;
52724;SDS011;38621;52.830;6.914;2023-11-18T00:40:28;13.55;;;8.63;;
52724;SDS011;38621;52.830;6.914;2023-11-18T00:42:57;14.70;;;8.75;;
52724;SDS011;38621;52.830;6.914;2023-11-18T00:45:23;19.60;;;8.32;;
52724;SDS011;38621;52.830;6.914;2023-11-18T00:47:49;10.02;;;7.68;;
52724;SDS011;38621;52.830;6.914;2023-11-18T00:50:15;13.10;;;8.45;;
52724;SDS011;38621;52.830;6.914;2023-11-18T00:52:40;9.00;;;7.50;;
52724;SDS011;38621;52.830;6.914;2023-11-18T00:55:10;9.90;;;6.72;;
52724;SDS011;38621;52.830;6.914;2023-11-18T00:57:38;11.43;;;7.60;;
52724;SDS011;38621;52.830;6.914;2023-11-18T01:00:05;25.23;;;7.72;;
52724;SDS011;38621;52.830;6.914;2023-11-18T01:02:32;16.58;;;7.72;;
52724;SDS011;38621;52.830;6.914;2023-11-18T01:04:58;27.63;;;7.60;;
52724;SDS011;38621;52.830;6.914;2023-11-18T01:07:23;12.68;;;7.40;;
52724;SDS011;38621;52.830;6.914;2023-11-18T01:09:49;13.95;;;7.32;;
52724;SDS011;38621;52.830;6.914;2023-11-18T01:12:15;12.00;;;8.77;;
52724;SDS011;38621;52.830;6.914;2023-11-18T01:14:40;17.98;;;8.35;;
52724;SDS011;38621;52.830;6.914;2023-11-18T01:17:07;16.88;;;8.13;;
52724;SDS011;38621;52.830;6.914;2023-11-18T01:19:34;20.02;;;9.02;;
52724;SDS011;38621;52.830;6.914;2023-11-18T01:22:00;29.88;;;9.85;;
52724;SDS011;38621;52.830;6.914;2023-11-18T01:24:30;16.23;;;9.30;;
52724;SDS011;38621;52.830;6.914;2023-11-18T01:26:56;21.80;;;9.25;;
52724;SDS011;38621;52.830;6.914;2023-11-18T01:29:22;17.48;;;8.95;;
52724;SDS011;38621;52.830;6.914;2023-11-18T01:31:48;14.38;;;8.82;;
52724;SDS011;38621;52.830;6.914;2023-11-18T01:34:13;11.90;;;8.43;;
52724;SDS011;38621;52.830;6.914;2023-11-18T01:36:39;13.07;;;8.48;;
52724;SDS011;38621;52.830;6.914;2023-11-18T01:39:05;10.95;;;7.93;;
52724;SDS011;38621;52.830;6.914;2023-11-18T01:41:32;11.70;;;8.27;;
52724;SDS011;38621;52.830;6.914;2023-11-18T01:43:58;14.50;;;8.55;;
52724;SDS011;38621;52.830;6.914;2023-11-18T01:46:24;13.65;;;8.60;;
52724;SDS011;38621;52.830;6.914;2023-11-18T01:48:50;14.13;;;9.55;;
52724;SDS011;38621;52.830;6.914;2023-11-18T01:51:17;17.52;;;8.45;;
52724;SDS011;38621;52.830;6.914;2023-11-18T01:53:45;12.45;;;8.45;;
52724;SDS011;38621;52.830;6.914;2023-11-18T01:56:15;12.18;;;8.63;;
52724;SDS011;38621;52.830;6.914;2023-11-18T01:58:41;14.60;;;9.23;;
52724;SDS011;38621;52.830;6.914;2023-11-18T02:01:07;14.25;;;8.43;;
52724;SDS011;38621;52.830;6.914;2023-11-18T02:03:36;12.88;;;8.50;;
52724;SDS011;38621;52.830;6.914;2023-11-18T02:06:03;17.15;;;11.18;;
52724;SDS011;38621;52.830;6.914;2023-11-18T02:08:31;12.85;;;10.02;;
52724;SDS011;38621;52.830;6.914;2023-11-18T02:11:01;10.90;;;8.00;;
52724;SDS011;38621;52.830;6.914;2023-11-18T02:13:39;10.05;;;7.43;;
52724;SDS011;38621;52.830;6.914;2023-11-18T02:16:08;12.73;;;8.80;;
52724;SDS011;38621;52.830;6.914;2023-11-18T02:18:35;11.48;;;8.30;;
52724;SDS011;38621;52.830;6.914;2023-11-18T02:21:05;9.38;;;7.32;;
52724;SDS011;38621;52.830;6.914;2023-11-18T02:23:33;10.63;;;8.38;;
52724;SDS011;38621;52.830;6.914;2023-11-18T02:25:59;18.50;;;11.50;;
52724;SDS011;38621;52.830;6.914;2023-11-18T02:28:27;25.27;;;16.25;;
52724;SDS011;38621;52.830;6.914;2023-11-18T02:31:04;20.42;;;13.68;;
52724;SDS011;38621;52.830;6.914;2023-11-18T02:33:40;14.18;;;10.57;;
52724;SDS011;38621;52.830;6.914;2023-11-18T02:36:20;12.35;;;9.27;;
52724;SDS011;38621;52.830;6.914;2023-11-18T02:38:52;16.52;;;10.27;;
52724;SDS011;38621;52.830;6.914;2023-11-18T02:41:20;16.90;;;9.80;;
52724;SDS011;38621;52.830;6.914;2023-11-18T02:43:47;16.58;;;11.02;;
52724;SDS011;38621;52.830;6.914;2023-11-18T02:46:14;18.83;;;10.88;;
52724;SDS011;38621;52.830;6.914;2023-11-18T02:48:41;20.00;;;10.98;;
52724;SDS011;38621;52.830;6.914;2023-11-18T02:51:08;20.23;;;12.00;;
52724;SDS011;38621;52.830;6.914;2023-11-18T02:53:37;18.15;;;11.55;;
52724;SDS011;38621;52.830;6.914;2023-11-18T02:56:02;18.23;;;11.15;;
52724;SDS011;38621;52.830;6.914;2023-11-18T02:58:29;21.17;;;12.25;;
52724;SDS011;38621;52.830;6.914;2023-11-18T03:00:55;21.73;;;12.63;;
52724;SDS011;38621;52.830;6.914;2023-11-18T03:03:22;26.88;;;12.52;;
52724;SDS011;38621;52.830;6.914;2023-11-18T03:05:48;22.95;;;12.50;;
52724;SDS011;38621;52.830;6.914;2023-11-18T03:08:15;20.95;;;13.10;;
52724;SDS011;38621;52.830;6.914;2023-11-18T03:10:40;25.75;;;16.27;;
52724;SDS011;38621;52.830;6.914;2023-11-18T03:13:09;26.95;;;14.98;;
52724;SDS011;38621;52.830;6.914;2023-11-18T03:15:37;20.55;;;15.27;;
52724;SDS011;38621;52.830;6.914;2023-11-18T03:18:03;22.45;;;14.90;;
52724;SDS011;38621;52.830;6.914;2023-11-18T03:20:30;28.15;;;16.15;;
52724;SDS011;38621;52.830;6.914;2023-11-18T03:22:59;28.40;;;15.95;;
52724;SDS011;38621;52.830;6.914;2023-11-18T03:25:26;21.27;;;15.38;;
52724;SDS011;38621;52.830;6.914;2023-11-18T03:27:52;23.35;;;17.63;;
52724;SDS011;38621;52.830;6.914;2023-11-18T03:30:19;24.38;;;19.20;;
52724;SDS011;38621;52.830;6.914;2023-11-18T03:32:45;25.92;;;19.55;;
52724;SDS011;38621;52.830;6.914;2023-11-18T03:35:11;25.65;;;17.67;;
52724;SDS011;38621;52.830;6.914;2023-11-18T03:37:40;30.33;;;17.88;;
52724;SDS011;38621;52.830;6.914;2023-11-18T03:40:13;29.08;;;15.57;;
52724;SDS011;38621;52.830;6.914;2023-11-18T03:42:39;28.67;;;17.48;;
52724;SDS011;38621;52.830;6.914;2023-11-18T03:45:06;29.15;;;18.20;;
52724;SDS011;38621;52.830;6.914;2023-11-18T03:47:34;28.98;;;16.70;;
52724;SDS011;38621;52.830;6.914;2023-11-18T03:50:00;24.10;;;16.10;;
52724;SDS011;38621;52.830;6.914;2023-11-18T03:52:26;24.05;;;15.75;;
52724;SDS011;38621;52.830;6.914;2023-11-18T03:54:52;28.58;;;17.35;;
52724;SDS011;38621;52.830;6.914;2023-11-18T03:57:20;24.80;;;16.27;;
52724;SDS011;38621;52.830;6.914;2023-11-18T03:59:46;32.00;;;15.93;;
52724;SDS011;38621;52.830;6.914;2023-11-18T04:02:12;25.45;;;14.82;;
52724;SDS011;38621;52.830;6.914;2023-11-18T04:04:38;24.58;;;14.48;;
52724;SDS011;38621;52.830;6.914;2023-11-18T04:07:03;24.00;;;14.38;;
52724;SDS011;38621;52.830;6.914;2023-11-18T04:09:29;27.45;;;14.93;;
52724;SDS011;38621;52.830;6.914;2023-11-18T04:11:55;28.45;;;14.00;;
52724;SDS011;38621;52.830;6.914;2023-11-18T04:14:21;42.13;;;15.15;;
52724;SDS011;38621;52.830;6.914;2023-11-18T04:16:47;24.70;;;13.85;;
52724;SDS011;38621;52.830;6.914;2023-11-18T04:19:17;34.55;;;13.95;;
52724;SDS011;38621;52.830;6.914;2023-11-18T04:21:43;47.50;;;15.77;;
52724;SDS011;38621;52.830;6.914;2023-11-18T04:24:13;84.25;;;18.23;;
52724;SDS011;38621;52.830;6.914;2023-11-18T04:26:40;24.92;;;13.90;;
52724;SDS011;38621;52.830;6.914;2023-11-18T04:29:06;34.90;;;14.55;;
52724;SDS011;38621;52.830;6.914;2023-11-18T04:31:31;35.30;;;13.02;;
52724;SDS011;38621;52.830;6.914;2023-11-18T04:33:59;27.70;;;15.63;;
52724;SDS011;38621;52.830;6.914;2023-11-18T04:36:24;27.48;;;15.75;;
52724;SDS011;38621;52.830;6.914;2023-11-18T04:38:51;30.05;;;17.10;;
52724;SDS011;38621;52.830;6.914;2023-11-18T04:41:17;27.17;;;16.63;;
52724;SDS011;38621;52.830;6.914;2023-11-18T04:43:43;24.92;;;15.57;;
52724;SDS011;38621;52.830;6.914;2023-11-18T04:46:09;22.60;;;16.17;;
52724;SDS011;38621;52.830;6.914;2023-11-18T04:48:35;25.30;;;17.25;;
52724;SDS011;38621;52.830;6.914;2023-11-18T04:51:01;21.50;;;15.50;;
52724;SDS011;38621;52.830;6.914;2023-11-18T04:53:27;24.15;;;18.17;;
52724;SDS011;38621;52.830;6.914;2023-11-18T04:55:53;24.25;;;15.82;;
52724;SDS011;38621;52.830;6.914;2023-11-18T04:58:19;26.52;;;16.52;;
52724;SDS011;38621;52.830;6.914;2023-11-18T05:00:45;27.02;;;16.50;;
52724;SDS011;38621;52.830;6.914;2023-11-18T05:03:11;23.15;;;16.08;;
52724;SDS011;38621;52.830;6.914;2023-11-18T05:05:39;28.83;;;17.33;;
52724;SDS011;38621;52.830;6.914;2023-11-18T05:08:06;22.58;;;15.95;;
52724;SDS011;38621;52.830;6.914;2023-11-18T05:10:33;24.25;;;16.05;;
52724;SDS011;38621;52.830;6.914;2023-11-18T05:13:00;23.63;;;15.85;;
52724;SDS011;38621;52.830;6.914;2023-11-18T05:15:26;27.20;;;16.20;;
52724;SDS011;38621;52.830;6.914;2023-11-18T05:17:53;26.27;;;15.75;;
52724;SDS011;38621;52.830;6.914;2023-11-18T05:20:19;24.35;;;17.50;;
52724;SDS011;38621;52.830;6.914;2023-11-18T05:22:45;22.70;;;17.45;;
52724;SDS011;38621;52.830;6.914;2023-11-18T05:25:11;22.83;;;14.80;;
52724;SDS011;38621;52.830;6.914;2023-11-18T05:27:37;20.95;;;14.65;;
52724;SDS011;38621;52.830;6.914;2023-11-18T05:30:09;22.52;;;14.10;;
52724;SDS011;38621;52.830;6.914;2023-11-18T05:32:36;22.58;;;15.35;;
52724;SDS011;38621;52.830;6.914;2023-11-18T05:35:03;29.10;;;16.52;;
52724;SDS011;38621;52.830;6.914;2023-11-18T05:37:30;22.55;;;15.00;;
52724;SDS011;38621;52.830;6.914;2023-11-18T05:40:01;25.48;;;16.83;;
52724;SDS011;38621;52.830;6.914;2023-11-18T05:42:35;23.33;;;15.90;;
52724;SDS011;38621;52.830;6.914;2023-11-18T05:45:05;22.73;;;15.20;;
52724;SDS011;38621;52.830;6.914;2023-11-18T05:47:32;23.45;;;14.75;;
52724;SDS011;38621;52.830;6.914;2023-11-18T05:50:00;25.90;;;16.23;;
52724;SDS011;38621;52.830;6.914;2023-11-18T05:52:25;24.00;;;15.35;;
52724;SDS011;38621;52.830;6.914;2023-11-18T05:54:52;25.70;;;16.23;;
52724;SDS011;38621;52.830;6.914;2023-11-18T05:57:18;25.75;;;17.75;;
52724;SDS011;38621;52.830;6.914;2023-11-18T05:59:44;22.52;;;16.63;;
52724;SDS011;38621;52.830;6.914;2023-11-18T06:02:13;22.35;;;16.08;;
52724;SDS011;38621;52.830;6.914;2023-11-18T06:04:43;29.67;;;16.95;;
52724;SDS011;38621;52.830;6.914;2023-11-18T06:07:09;23.63;;;15.50;;
52724;SDS011;38621;52.830;6.914;2023-11-18T06:09:38;25.50;;;17.00;;
52724;SDS011;38621;52.830;6.914;2023-11-18T06:12:09;25.58;;;17.83;;
52724;SDS011;38621;52.830;6.914;2023-11-18T06:14:38;27.85;;;17.67;;
52724;SDS011;38621;52.830;6.914;2023-11-18T06:17:06;27.70;;;18.20;;
52724;SDS011;38621;52.830;6.914;2023-11-18T06:19:33;28.20;;;19.27;;
52724;SDS011;38621;52.830;6.914;2023-11-18T06:21:59;32.67;;;18.27;;
52724;SDS011;38621;52.830;6.914;2023-11-18T06:24:25;28.35;;;17.27;;
52724;SDS011;38621;52.830;6.914;2023-11-18T06:26:51;30.48;;;18.95;;
52724;SDS011;38621;52.830;6.914;2023-11-18T06:29:17;25.08;;;18.15;;
52724;SDS011;38621;52.830;6.914;2023-11-18T06:31:43;26.63;;;17.55;;
52724;SDS011;38621;52.830;6.914;2023-11-18T06:34:09;24.70;;;15.68;;
52724;SDS011;38621;52.830;6.914;2023-11-18T06:36:35;28.50;;;16.63;;
52724;SDS011;38621;52.830;6.914;2023-11-18T06:39:00;24.40;;;15.43;;
52724;SDS011;38621;52.830;6.914;2023-11-18T06:41:26;23.80;;;14.82;;
52724;SDS011;38621;52.830;6.914;2023-11-18T06:43:59;26.80;;;16.77;;
52724;SDS011;38621;52.830;6.914;2023-11-18T06:46:28;26.63;;;16.73;;
52724;SDS011;38621;52.830;6.914;2023-11-18T06:49:05;24.30;;;15.35;;
52724;SDS011;38621;52.830;6.914;2023-11-18T06:51:35;32.72;;;17.95;;
52724;SDS011;38621;52.830;6.914;2023-11-18T06:54:03;26.23;;;16.75;;
52724;SDS011;38621;52.830;6.914;2023-11-18T06:56:34;29.70;;;17.20;;
52724;SDS011;38621;52.830;6.914;2023-11-18T06:59:04;27.35;;;17.05;;
52724;SDS011;38621;52.830;6.914;2023-11-18T07:01:32;28.92;;;17.65;;
52724;SDS011;38621;52.830;6.914;2023-11-18T07:04:01;27.58;;;16.90;;
52724;SDS011;38621;52.830;6.914;2023-11-18T07:06:26;28.45;;;17.90;;
52724;SDS011;38621;52.830;6.914;2023-11-18T07:08:53;30.02;;;18.20;;
52724;SDS011;38621;52.830;6.914;2023-11-18T07:11:25;31.52;;;18.85;;
52724;SDS011;38621;52.830;6.914;2023-11-18T07:13:51;30.55;;;18.52;;
52724;SDS011;38621;52.830;6.914;2023-11-18T07:16:22;39.47;;;19.50;;
52724;SDS011;38621;52.830;6.914;2023-11-18T07:18:48;35.53;;;20.65;;
52724;SDS011;38621;52.830;6.914;2023-11-18T07:21:14;36.53;;;19.55;;
52724;SDS011;38621;52.830;6.914;2023-11-18T07:23:40;43.08;;;19.48;;
52724;SDS011;38621;52.830;6.914;2023-11-18T07:26:07;37.70;;;21.35;;
52724;SDS011;38621;52.830;6.914;2023-11-18T07:28:35;34.30;;;19.50;;
52724;SDS011;38621;52.830;6.914;2023-11-18T07:31:01;38.08;;;21.67;;
52724;SDS011;38621;52.830;6.914;2023-11-18T07:33:30;34.58;;;20.85;;
52724;SDS011;38621;52.830;6.914;2023-11-18T07:35:57;36.05;;;21.25;;
52724;SDS011;38621;52.830;6.914;2023-11-18T07:38:23;35.15;;;21.10;;
52724;SDS011;38621;52.830;6.914;2023-11-18T07:40:49;41.20;;;20.80;;
52724;SDS011;38621;52.830;6.914;2023-11-18T07:43:18;38.75;;;20.80;;
52724;SDS011;38621;52.830;6.914;2023-11-18T07:45:46;38.58;;;21.15;;
52724;SDS011;38621;52.830;6.914;2023-11-18T07:48:16;35.97;;;21.83;;
52724;SDS011;38621;52.830;6.914;2023-11-18T07:50:42;41.53;;;22.38;;
52724;SDS011;38621;52.830;6.914;2023-11-18T07:53:15;49.55;;;20.67;;
52724;SDS011;38621;52.830;6.914;2023-11-18T07:55:41;35.97;;;21.23;;
52724;SDS011;38621;52.830;6.914;2023-11-18T07:58:07;39.97;;;22.83;;
52724;SDS011;38621;52.830;6.914;2023-11-18T08:00:40;42.35;;;24.48;;
52724;SDS011;38621;52.830;6.914;2023-11-18T08:03:14;43.35;;;23.70;;
52724;SDS011;38621;52.830;6.914;2023-11-18T08:05:43;36.03;;;21.90;;
52724;SDS011;38621;52.830;6.914;2023-11-18T08:08:13;40.30;;;23.33;;
52724;SDS011;38621;52.830;6.914;2023-11-18T08:10:42;41.33;;;21.80;;
52724;SDS011;38621;52.830;6.914;2023-11-18T08:13:09;39.40;;;21.00;;
52724;SDS011;38621;52.830;6.914;2023-11-18T08:15:39;31.00;;;19.13;;
52724;SDS011;38621;52.830;6.914;2023-11-18T08:18:06;34.33;;;20.95;;
52724;SDS011;38621;52.830;6.914;2023-11-18T08:20:32;35.03;;;20.65;;
52724;SDS011;38621;52.830;6.914;2023-11-18T08:22:58;33.85;;;20.55;;
52724;SDS011;38621;52.830;6.914;2023-11-18T08:25:24;30.70;;;20.48;;
52724;SDS011;38621;52.830;6.914;2023-11-18T08:27:50;33.08;;;19.63;;
52724;SDS011;38621;52.830;6.914;2023-11-18T08:30:16;30.90;;;18.90;;
52724;SDS011;38621;52.830;6.914;2023-11-18T08:32:43;30.75;;;19.50;;
52724;SDS011;38621;52.830;6.914;2023-11-18T08:35:10;33.72;;;20.13;;
52724;SDS011;38621;52.830;6.914;2023-11-18T08:37:39;35.72;;;20.52;;
52724;SDS011;38621;52.830;6.914;2023-11-18T08:40:06;31.15;;;19.67;;
52724;SDS011;38621;52.830;6.914;2023-11-18T08:42:43;28.77;;;20.10;;
52724;SDS011;38621;52.830;6.914;2023-11-18T08:45:25;33.55;;;20.70;;
52724;SDS011;38621;52.830;6.914;2023-11-18T08:47:54;32.85;;;19.58;;
52724;SDS011;38621;52.830;6.914;2023-11-18T08:50:21;37.30;;;21.25;;
52724;SDS011;38621;52.830;6.914;2023-11-18T08:52:49;33.67;;;20.48;;
52724;SDS011;38621;52.830;6.914;2023-11-18T08:55:19;33.85;;;20.98;;
52724;SDS011;38621;52.830;6.914;2023-11-18T08:57:49;34.08;;;21.23;;
52724;SDS011;38621;52.830;6.914;2023-11-18T09:00:25;35.72;;;21.45;;
52724;SDS011;38621;52.830;6.914;2023-11-18T09:03:24;35.67;;;21.48;;
52724;SDS011;38621;52.830;6.914;2023-11-18T09:05:54;32.95;;;21.20;;
52724;SDS011;38621;52.830;6.914;2023-11-18T09:08:26;36.45;;;22.02;;
52724;SDS011;38621;52.830;6.914;2023-11-18T09:10:54;35.30;;;21.85;;
52724;SDS011;38621;52.830;6.914;2023-11-18T09:13:21;36.85;;;21.25;;
52724;SDS011;38621;52.830;6.914;2023-11-18T09:15:58;33.58;;;19.92;;
52724;SDS011;38621;52.830;6.914;2023-11-18T09:18:28;31.90;;;21.17;;
52724;SDS011;38621;52.830;6.914;2023-11-18T09:20:55;33.67;;;20.90;;
52724;SDS011;38621;52.830;6.914;2023-11-18T09:23:26;31.95;;;19.67;;
52724;SDS011;38621;52.830;6.914;2023-11-18T09:25:55;31.02;;;21.25;;
52724;SDS011;38621;52.830;6.914;2023-11-18T09:28:21;34.35;;;21.25;;
52724;SDS011;38621;52.830;6.914;2023-11-18T09:30:54;33.83;;;21.50;;
52724;SDS011;38621;52.830;6.914;2023-11-18T09:33:26;33.72;;;20.70;;
52724;SDS011;38621;52.830;6.914;2023-11-18T09:35:57;31.10;;;21.70;;
52724;SDS011;38621;52.830;6.914;2023-11-18T09:38:30;31.27;;;19.95;;
52724;SDS011;38621;52.830;6.914;2023-11-18T09:40:58;30.50;;;21.15;;
52724;SDS011;38621;52.830;6.914;2023-11-18T09:43:29;33.65;;;21.23;;
52724;SDS011;38621;52.830;6.914;2023-11-18T09:46:07;30.50;;;19.88;;
52724;SDS011;38621;52.830;6.914;2023-11-18T09:51:14;30.73;;;20.33;;
52724;SDS011;38621;52.830;6.914;2023-11-18T09:53:44;32.30;;;20.00;;
52724;SDS011;38621;52.830;6.914;2023-11-18T09:56:13;33.42;;;21.10;;
52724;SDS011;38621;52.830;6.914;2023-11-18T09:58:57;31.50;;;20.33;;
52724;SDS011;38621;52.830;6.914;2023-11-18T10:01:32;29.63;;;20.48;;
52724;SDS011;38621;52.830;6.914;2023-11-18T10:04:04;24.85;;;17.58;;
52724;SDS011;38621;52.830;6.914;2023-11-18T10:06:32;32.67;;;19.85;;
52724;SDS011;38621;52.830;6.914;2023-11-18T10:09:01;28.65;;;19.80;;
52724;SDS011;38621;52.830;6.914;2023-11-18T10:11:40;31.15;;;19.70;;
52724;SDS011;38621;52.830;6.914;2023-11-18T10:14:13;25.30;;;17.77;;
52724;SDS011;38621;52.830;6.914;2023-11-18T10:16:43;27.92;;;18.45;;
52724;SDS011;38621;52.830;6.914;2023-11-18T10:19:13;28.98;;;19.50;;
52724;SDS011;38621;52.830;6.914;2023-11-18T10:21:39;28.73;;;19.50;;
52724;SDS011;38621;52.830;6.914;2023-11-18T10:24:06;29.73;;;19.55;;
52724;SDS011;38621;52.830;6.914;2023-11-18T10:26:45;27.35;;;18.13;;
52724;SDS011;38621;52.830;6.914;2023-11-18T10:29:20;24.40;;;17.48;;
52724;SDS011;38621;52.830;6.914;2023-11-18T10:31:46;24.90;;;17.10;;
52724;SDS011;38621;52.830;6.914;2023-11-18T10:34:12;25.02;;;18.67;;
52724;SDS011;38621;52.830;6.914;2023-11-18T10:36:41;21.90;;;16.98;;
52724;SDS011;38621;52.830;6.914;2023-11-18T10:39:23;24.48;;;17.27;;
52724;SDS011;38621;52.830;6.914;2023-11-18T10:41:59;22.70;;;17.42;;
52724;SDS011;38621;52.830;6.914;2023-11-18T10:44:28;22.58;;;15.27;;
52724;SDS011;38621;52.830;6.914;2023-11-18T10:46:56;22.67;;;16.33;;
52724;SDS011;38621;52.830;6.914;2023-11-18T10:49:29;22.52;;;15.55;;
52724;SDS011;38621;52.830;6.914;2023-11-18T10:52:02;21.58;;;16.17;;
52724;SDS011;38621;52.830;6.914;2023-11-18T10:54:32;23.52;;;16.83;;
52724;SDS011;38621;52.830;6.914;2023-11-18T10:57:00;22.92;;;15.43;;
52724;SDS011;38621;52.830;6.914;2023-11-18T10:59:32;21.38;;;15.30;;
52724;SDS011;38621;52.830;6.914;2023-11-18T11:01:58;21.48;;;14.23;;
52724;SDS011;38621;52.830;6.914;2023-11-18T11:04:24;19.75;;;15.10;;
52724;SDS011;38621;52.830;6.914;2023-11-18T11:06:50;19.38;;;15.02;;
52724;SDS011;38621;52.830;6.914;2023-11-18T11:09:21;19.08;;;14.32;;
52724;SDS011;38621;52.830;6.914;2023-11-18T11:12:00;19.20;;;14.13;;
52724;SDS011;38621;52.830;6.914;2023-11-18T11:14:42;20.80;;;14.27;;
52724;SDS011;38621;52.830;6.914;2023-11-18T11:17:17;20.48;;;14.95;;
52724;SDS011;38621;52.830;6.914;2023-11-18T11:22:39;18.90;;;14.63;;
52724;SDS011;38621;52.830;6.914;2023-11-18T11:25:43;19.88;;;13.70;;
52724;SDS011;38621;52.830;6.914;2023-11-18T11:28:17;21.70;;;14.35;;
52724;SDS011;38621;52.830;6.914;2023-11-18T11:30:51;20.50;;;15.18;;
52724;SDS011;38621;52.830;6.914;2023-11-18T11:33:36;22.65;;;14.68;;
52724;SDS011;38621;52.830;6.914;2023-11-18T11:36:17;19.02;;;14.38;;
52724;SDS011;38621;52.830;6.914;2023-11-18T11:38:52;19.83;;;15.15;;
52724;SDS011;38621;52.830;6.914;2023-11-18T11:41:21;21.08;;;15.38;;
52724;SDS011;38621;52.830;6.914;2023-11-18T11:43:52;18.85;;;14.40;;
52724;SDS011;38621;52.830;6.914;2023-11-18T11:46:23;19.15;;;14.63;;
52724;SDS011;38621;52.830;6.914;2023-11-18T11:48:52;16.75;;;13.57;;
52724;SDS011;38621;52.830;6.914;2023-11-18T11:54:06;17.95;;;14.10;;
52724;SDS011;38621;52.830;6.914;2023-11-18T11:56:43;19.38;;;14.73;;
52724;SDS011;38621;52.830;6.914;2023-11-18T12:02:19;18.10;;;13.35;;
52724;SDS011;38621;52.830;6.914;2023-11-18T12:04:50;17.55;;;13.50;;
52724;SDS011;38621;52.830;6.914;2023-11-18T12:07:22;18.98;;;13.00;;
52724;SDS011;38621;52.830;6.914;2023-11-18T12:09:49;16.60;;;12.45;;
52724;SDS011;38621;52.830;6.914;2023-11-18T12:12:20;20.70;;;14.30;;
52724;SDS011;38621;52.830;6.914;2023-11-18T12:14:52;15.57;;;13.30;;
52724;SDS011;38621;52.830;6.914;2023-11-18T12:17:21;18.95;;;14.50;;
52724;SDS011;38621;52.830;6.914;2023-11-18T12:19:47;16.88;;;13.50;;
52724;SDS011;38621;52.830;6.914;2023-11-18T12:22:18;21.77;;;14.82;;
52724;SDS011;38621;52.830;6.914;2023-11-18T12:35:23;17.30;;;15.45;;
52724;SDS011;38621;52.830;6.914;2023-11-18T12:41:03;21.83;;;15.38;;
52724;SDS011;38621;52.830;6.914;2023-11-18T12:49:07;17.98;;;15.98;;
52724;SDS011;38621;52.830;6.914;2023-11-18T12:51:40;21.33;;;14.80;;
52724;SDS011;38621;52.830;6.914;2023-11-18T12:54:09;17.90;;;16.00;;
52724;SDS011;38621;52.830;6.914;2023-11-18T12:56:37;17.95;;;15.48;;
52724;SDS011;38621;52.830;6.914;2023-11-18T12:59:09;18.23;;;14.75;;
52724;SDS011;38621;52.830;6.914;2023-11-18T13:01:38;18.27;;;14.55;;
52724;SDS011;38621;52.830;6.914;2023-11-18T13:04:07;16.83;;;14.60;;
52724;SDS011;38621;52.830;6.914;2023-11-18T13:06:36;17.50;;;15.20;;
52724;SDS011;38621;52.830;6.914;2023-11-18T13:09:02;16.95;;;14.82;;
52724;SDS011;38621;52.830;6.914;2023-11-18T13:11:34;16.67;;;14.88;;
52724;SDS011;38621;52.830;6.914;2023-11-18T13:14:00;18.05;;;15.80;;
52724;SDS011;38621;52.830;6.914;2023-11-18T13:16:27;18.65;;;15.73;;
52724;SDS011;38621;52.830;6.914;2023-11-18T13:18:53;16.83;;;15.13;;
52724;SDS011;38621;52.830;6.914;2023-11-18T13:21:21;18.33;;;15.63;;
52724;SDS011;38621;52.830;6.914;2023-11-18T13:23:48;18.77;;;16.48;;
52724;SDS011;38621;52.830;6.914;2023-11-18T13:26:18;18.00;;;15.65;;
52724;SDS011;38621;52.830;6.914;2023-11-18T13:28:47;17.05;;;15.23;;
52724;SDS011;38621;52.830;6.914;2023-11-18T13:31:14;18.90;;;16.58;;
52724;SDS011;38621;52.830;6.914;2023-11-18T13:33:43;17.77;;;15.88;;
52724;SDS011;38621;52.830;6.914;2023-11-18T13:36:09;19.75;;;17.10;;
52724;SDS011;38621;52.830;6.914;2023-11-18T13:38:38;18.13;;;16.23;;
52724;SDS011;38621;52.830;6.914;2023-11-18T13:41:04;20.30;;;16.85;;
52724;SDS011;38621;52.830;6.914;2023-11-18T13:46:17;19.65;;;17.55;;
52724;SDS011;38621;52.830;6.914;2023-11-18T13:48:49;19.52;;;16.90;;
52724;SDS011;38621;52.830;6.914;2023-11-18T13:51:16;20.80;;;16.58;;
52724;SDS011;38621;52.830;6.914;2023-11-18T13:53:44;18.65;;;16.55;;
52724;SDS011;38621;52.830;6.914;2023-11-18T13:56:11;17.77;;;16.08;;
52724;SDS011;38621;52.830;6.914;2023-11-18T13:58:38;20.40;;;17.60;;
52724;SDS011;38621;52.830;6.914;2023-11-18T14:01:07;18.65;;;16.80;;
52724;SDS011;38621;52.830;6.914;2023-11-18T14:03:34;18.73;;;16.80;;
52724;SDS011;38621;52.830;6.914;2023-11-18T14:06:02;18.60;;;16.75;;
52724;SDS011;38621;52.830;6.914;2023-11-18T14:08:31;18.83;;;17.02;;
52724;SDS011;38621;52.830;6.914;2023-11-18T14:10:59;18.33;;;16.13;;
52724;SDS011;38621;52.830;6.914;2023-11-18T14:13:25;18.23;;;16.35;;
52724;SDS011;38621;52.830;6.914;2023-11-18T14:15:56;18.75;;;16.98;;
52724;SDS011;38621;52.830;6.914;2023-11-18T14:18:22;18.38;;;16.60;;
52724;SDS011;38621;52.830;6.914;2023-11-18T14:20:48;20.38;;;17.20;;
52724;SDS011;38621;52.830;6.914;2023-11-18T14:23:15;22.55;;;18.77;;
52724;SDS011;38621;52.830;6.914;2023-11-18T14:25:41;19.75;;;17.75;;
52724;SDS011;38621;52.830;6.914;2023-11-18T14:28:07;20.73;;;18.60;;
52724;SDS011;38621;52.830;6.914;2023-11-18T14:30:35;19.52;;;17.25;;
52724;SDS011;38621;52.830;6.914;2023-11-18T14:33:01;19.70;;;17.80;;
52724;SDS011;38621;52.830;6.914;2023-11-18T14:35:29;20.17;;;18.38;;
52724;SDS011;38621;52.830;6.914;2023-11-18T14:37:55;19.52;;;17.02;;
52724;SDS011;38621;52.830;6.914;2023-11-18T14:40:21;20.80;;;18.70;;
52724;SDS011;38621;52.830;6.914;2023-11-18T14:42:49;20.80;;;18.63;;
52724;SDS011;38621;52.830;6.914;2023-11-18T14:45:15;20.42;;;18.52;;
52724;SDS011;38621;52.830;6.914;2023-11-18T14:47:42;20.58;;;18.77;;
52724;SDS011;38621;52.830;6.914;2023-11-18T14:50:24;19.27;;;17.38;;
52724;SDS011;38621;52.830;6.914;2023-11-18T14:52:51;22.60;;;19.02;;
52724;SDS011;38621;52.830;6.914;2023-11-18T14:55:23;19.75;;;17.70;;
52724;SDS011;38621;52.830;6.914;2023-11-18T14:57:50;19.33;;;17.52;;
52724;SDS011;38621;52.830;6.914;2023-11-18T15:00:16;20.27;;;18.17;;
52724;SDS011;38621;52.830;6.914;2023-11-18T15:02:47;20.95;;;18.85;;
52724;SDS011;38621;52.830;6.914;2023-11-18T15:05:14;20.17;;;18.35;;